createdAt,value
2023-07-02T00:01:10.257Z,68.07
2023-07-02T00:03:39.401Z,68.20
2023-07-02T00:06:07.251Z,68.22
2023-07-02T00:08:34.917Z,68.31
2023-07-02T00:11:02.467Z,68.22
2023-07-02T00:13:29.937Z,68.23
2023-07-02T00:15:57.376Z,68.35
2023-07-02T00:18:24.790Z,68.48
2023-07-02T00:20:52.277Z,68.48
2023-07-02T00:23:19.710Z,68.50
2023-07-02T00:25:47.239Z,68.66
2023-07-02T00:28:14.700Z,68.70
2023-07-02T00:30:42.162Z,68.73
2023-07-02T00:33:09.657Z,68.76
2023-07-02T00:35:37.090Z,68.62
2023-07-02T00:38:04.655Z,68.60
2023-07-02T00:40:32.493Z,68.77
2023-07-02T00:42:59.905Z,68.86
2023-07-02T00:45:27.714Z,68.99
2023-07-02T00:47:55.988Z,69.09
2023-07-02T00:50:24.229Z,69.28
2023-07-02T00:52:51.644Z,69.23
2023-07-02T00:55:19.515Z,69.17
2023-07-02T00:57:47.865Z,69.06
2023-07-02T01:00:15.435Z,69.25
2023-07-02T01:02:45.791Z,69.44
2023-07-02T01:05:16.858Z,69.48
2023-07-02T01:07:44.394Z,69.56
2023-07-02T01:10:12.787Z,69.79
2023-07-02T01:12:40.346Z,69.93
2023-07-02T01:15:08.460Z,70.10
2023-07-02T01:17:38.982Z,70.23
2023-07-02T01:20:09.893Z,70.33
2023-07-02T01:22:37.487Z,70.35
2023-07-02T01:25:05.258Z,70.43
2023-07-02T01:27:32.744Z,70.36
2023-07-02T01:30:00.225Z,70.39
2023-07-02T01:32:28.049Z,70.38
2023-07-02T01:34:55.503Z,70.41
2023-07-02T01:37:22.985Z,70.22
2023-07-02T01:39:50.403Z,70.14
2023-07-02T01:42:20.233Z,70.18
2023-07-02T01:44:52.566Z,70.06
2023-07-02T01:47:21.412Z,69.82
2023-07-02T01:49:49.071Z,69.71
2023-07-02T01:52:17.105Z,69.78
2023-07-02T01:54:45.508Z,69.69
2023-07-02T01:57:12.911Z,69.53
2023-07-02T01:59:40.327Z,69.45
2023-07-02T02:02:07.854Z,69.29
2023-07-02T02:04:37.395Z,69.54
2023-07-02T02:07:04.946Z,69.64
2023-07-02T02:09:33.788Z,69.51
2023-07-02T02:12:01.361Z,69.39
2023-07-02T02:14:28.992Z,69.47
2023-07-02T02:16:56.387Z,69.44
2023-07-02T02:19:24.648Z,69.51
2023-07-02T02:21:52.122Z,69.48
2023-07-02T02:24:19.510Z,69.64
2023-07-02T02:26:46.929Z,69.61
2023-07-02T02:29:14.324Z,69.59
2023-07-02T02:31:41.839Z,69.54
2023-07-02T02:34:09.528Z,69.62
2023-07-02T02:36:37.066Z,69.54
2023-07-02T02:39:04.456Z,69.49
2023-07-02T02:41:32.328Z,69.30
2023-07-02T02:44:00.753Z,69.22
2023-07-02T02:46:28.604Z,69.29
2023-07-02T02:48:56.106Z,69.42
2023-07-02T02:51:23.471Z,69.26
2023-07-02T02:53:50.946Z,69.27
2023-07-02T02:56:18.410Z,69.25
2023-07-02T02:58:45.842Z,69.12
2023-07-02T03:01:13.671Z,69.19
2023-07-02T03:03:47.206Z,69.42
2023-07-02T03:06:16.288Z,69.46
2023-07-02T03:08:44.199Z,69.44
2023-07-02T03:11:11.739Z,69.38
2023-07-02T03:13:39.285Z,69.31
2023-07-02T03:16:06.979Z,69.38
2023-07-02T03:18:34.773Z,69.31
2023-07-02T03:21:02.221Z,69.39
2023-07-02T03:23:29.670Z,69.34
2023-07-02T03:25:57.175Z,69.17
2023-07-02T03:28:24.672Z,69.32
2023-07-02T03:30:52.733Z,69.45
2023-07-02T03:33:20.307Z,69.55
2023-07-02T03:35:47.688Z,69.70
2023-07-02T03:38:16.246Z,69.79
2023-07-02T03:40:43.700Z,69.68
2023-07-02T03:43:12.020Z,69.65
2023-07-02T03:45:39.529Z,69.75
2023-07-02T03:48:07.078Z,69.83
2023-07-02T03:50:34.767Z,69.76
2023-07-02T03:53:02.446Z,69.61
2023-07-02T03:55:29.849Z,69.50
2023-07-02T03:57:57.182Z,69.38
2023-07-02T04:00:24.585Z,69.17
2023-07-02T04:02:52.885Z,68.98
2023-07-02T04:05:21.431Z,68.97
2023-07-02T04:08:49.407Z,68.96
2023-07-02T04:11:16.786Z,68.80
2023-07-02T04:13:44.327Z,68.68
2023-07-02T04:16:11.863Z,68.40
2023-07-02T04:18:39.328Z,68.38
2023-07-02T04:21:06.934Z,68.63
2023-07-02T04:23:34.364Z,68.75
2023-07-02T04:26:09.067Z,68.80
2023-07-02T04:28:49.771Z,68.71
2023-07-02T04:31:20.580Z,68.45
2023-07-02T04:33:48.145Z,68.67
2023-07-02T04:36:15.711Z,68.63
2023-07-02T04:38:43.193Z,68.49
2023-07-02T04:41:11.619Z,68.38
2023-07-02T04:43:39.884Z,68.44
2023-07-02T04:46:08.915Z,68.45
2023-07-02T04:48:37.393Z,68.28
2023-07-02T04:51:05.104Z,67.93
2023-07-02T04:53:32.560Z,67.78
2023-07-02T04:56:00.177Z,67.41
2023-07-02T04:58:28.402Z,67.00
2023-07-02T05:00:55.825Z,67.01
2023-07-02T05:03:23.526Z,66.84
2023-07-02T05:05:50.990Z,66.48
2023-07-02T05:08:18.375Z,66.31
2023-07-02T05:10:45.946Z,66.48
2023-07-02T05:13:13.563Z,66.66
2023-07-02T05:15:40.966Z,66.87
2023-07-02T05:18:12.219Z,66.91
2023-07-02T05:20:39.688Z,66.77
2023-07-02T05:23:07.141Z,66.66
2023-07-02T05:25:37.193Z,66.36
2023-07-02T05:28:04.747Z,65.93
2023-07-02T05:30:32.208Z,65.77
2023-07-02T05:32:59.777Z,65.31
2023-07-02T05:35:27.197Z,65.27
2023-07-02T05:37:54.587Z,64.51
2023-07-02T05:40:22.076Z,64.51
2023-07-02T05:42:49.715Z,64.39
2023-07-02T05:45:17.324Z,64.10
2023-07-02T05:47:44.823Z,63.49
2023-07-02T05:50:12.231Z,63.02
2023-07-02T05:52:39.860Z,63.04
2023-07-02T05:55:11.530Z,63.37
2023-07-02T05:57:39.803Z,63.46
2023-07-02T06:00:09.528Z,63.57
2023-07-02T06:02:40.253Z,63.46
2023-07-02T06:05:08.168Z,64.02
2023-07-02T06:07:35.892Z,64.18
2023-07-02T06:10:04.322Z,63.48
2023-07-02T06:12:31.716Z,62.60
2023-07-02T06:14:59.104Z,62.41
2023-07-02T06:17:26.569Z,62.18
2023-07-02T06:19:54.053Z,61.62
2023-07-02T06:22:21.535Z,61.51
2023-07-02T06:24:49.957Z,61.06
2023-07-02T06:27:17.574Z,60.64
2023-07-02T06:29:45.081Z,61.36
2023-07-02T06:32:12.502Z,61.12
2023-07-02T06:34:39.894Z,61.07
2023-07-02T06:37:07.492Z,60.73
2023-07-02T06:39:34.897Z,60.18
2023-07-02T06:42:02.636Z,59.64
2023-07-02T06:44:32.405Z,59.59
2023-07-02T06:46:59.914Z,59.08
2023-07-02T06:49:27.334Z,59.09
2023-07-02T06:51:54.803Z,59.11
2023-07-02T06:54:22.218Z,59.31
2023-07-02T06:56:49.622Z,58.81
2023-07-02T06:59:21.894Z,58.44
2023-07-02T07:01:50.377Z,58.37
2023-07-02T07:04:17.933Z,57.49
2023-07-02T07:06:45.510Z,55.88
2023-07-02T07:09:13.034Z,54.41
2023-07-02T07:11:49.481Z,53.90
2023-07-02T07:14:17.353Z,52.49
2023-07-02T07:16:44.794Z,52.29
2023-07-02T07:19:12.243Z,52.08
2023-07-02T07:21:41.088Z,51.86
2023-07-02T07:24:18.252Z,52.07
2023-07-02T07:26:47.090Z,51.47
2023-07-02T07:29:14.813Z,51.24
2023-07-02T07:31:42.322Z,51.24
2023-07-02T07:34:09.940Z,50.85
2023-07-02T07:36:38.605Z,49.96
2023-07-02T07:39:06.153Z,49.57
2023-07-02T07:41:33.902Z,49.70
2023-07-02T07:44:02.604Z,49.23
2023-07-02T07:46:30.108Z,49.03
2023-07-02T07:48:57.607Z,49.37
2023-07-02T07:51:25.009Z,49.62
2023-07-02T07:53:52.404Z,48.71
2023-07-02T07:56:19.819Z,48.90
2023-07-02T07:58:47.339Z,47.97
2023-07-02T08:01:14.844Z,46.95
2023-07-02T08:03:42.377Z,47.66
2023-07-02T08:06:10.433Z,47.71
2023-07-02T08:08:38.112Z,47.94
2023-07-02T08:11:05.617Z,47.96
2023-07-02T08:13:33.074Z,47.31
2023-07-02T08:16:06.312Z,46.55
2023-07-02T08:18:50.778Z,46.60
2023-07-02T08:21:21.980Z,46.72
2023-07-02T08:23:49.494Z,46.48
2023-07-02T08:26:17.001Z,46.09
2023-07-02T08:28:44.538Z,46.41
2023-07-02T08:31:12.151Z,46.11
2023-07-02T08:33:39.628Z,46.27
2023-07-02T08:36:07.144Z,46.49
2023-07-02T08:38:34.881Z,46.25
2023-07-02T08:41:02.388Z,46.18
2023-07-02T08:43:30.180Z,44.75
2023-07-02T08:45:57.627Z,44.86
2023-07-02T08:48:27.555Z,45.20
2023-07-02T08:50:55.154Z,46.04
2023-07-02T08:53:30.876Z,46.32
2023-07-02T08:55:58.471Z,45.87
2023-07-02T08:58:26.409Z,45.08
2023-07-02T09:01:11.754Z,44.55
2023-07-02T09:04:07.464Z,45.20
2023-07-02T09:06:36.400Z,45.39
2023-07-02T09:09:07.333Z,44.38
2023-07-02T09:11:35.804Z,43.40
2023-07-02T09:14:03.741Z,44.04
2023-07-02T09:16:33.064Z,44.55
2023-07-02T09:19:04.368Z,44.69
2023-07-02T09:21:48.787Z,44.59
2023-07-02T09:24:20.613Z,44.81
2023-07-02T09:26:50.763Z,44.75
2023-07-02T09:29:33.096Z,44.59
2023-07-02T09:32:11.293Z,43.97
2023-07-02T09:34:40.835Z,43.96
2023-07-02T09:37:08.492Z,43.76
2023-07-02T09:39:36.970Z,43.19
2023-07-02T09:42:07.106Z,42.72
2023-07-02T09:44:35.218Z,42.29
2023-07-02T09:47:06.673Z,42.81
2023-07-02T09:49:38.259Z,43.25
2023-07-02T09:52:06.742Z,43.02
2023-07-02T09:54:34.357Z,44.10
2023-07-02T09:57:02.085Z,44.09
2023-07-02T09:59:29.893Z,44.00
2023-07-02T10:01:57.885Z,43.78
2023-07-02T10:04:25.582Z,44.13
2023-07-02T10:06:54.838Z,43.55
2023-07-02T10:09:35.071Z,43.43
2023-07-02T10:12:02.721Z,43.59
2023-07-02T10:14:42.564Z,43.79
2023-07-02T10:17:10.076Z,43.34
2023-07-02T10:19:42.404Z,43.35
2023-07-02T10:22:10.289Z,41.95
2023-07-02T10:24:38.574Z,42.42
2023-07-02T10:27:06.079Z,41.53
2023-07-02T10:29:33.510Z,40.44
2023-07-02T10:32:01.323Z,40.83
2023-07-02T10:34:37.890Z,41.39
2023-07-02T10:37:05.593Z,41.13
2023-07-02T10:39:33.109Z,41.00
2023-07-02T10:42:10.402Z,40.61
2023-07-02T10:44:53.892Z,40.16
2023-07-02T10:47:21.405Z,40.54
2023-07-02T10:49:48.923Z,40.79
2023-07-02T10:52:16.310Z,41.65
2023-07-02T10:54:44.276Z,40.72
2023-07-02T10:57:12.924Z,40.50
2023-07-02T10:59:40.371Z,40.03
2023-07-02T11:02:07.930Z,40.32
2023-07-02T11:04:35.396Z,40.04
2023-07-02T11:07:02.853Z,40.21
2023-07-02T11:09:30.460Z,40.77
2023-07-02T11:11:59.580Z,40.73
2023-07-02T11:14:36.996Z,40.65
2023-07-02T11:17:06.620Z,40.29
2023-07-02T11:19:34.730Z,40.77
2023-07-02T11:22:03.639Z,41.28
2023-07-02T11:24:35.523Z,41.78
2023-07-02T11:27:04.754Z,42.23
2023-07-02T11:29:32.929Z,42.01
2023-07-02T11:32:07.823Z,42.20
2023-07-02T11:34:35.365Z,43.04
2023-07-02T11:37:02.872Z,43.19
2023-07-02T11:39:30.316Z,43.76
2023-07-02T11:41:57.754Z,43.77
2023-07-02T11:44:25.161Z,43.92
2023-07-02T11:46:53.354Z,44.28
2023-07-02T11:49:21.055Z,44.18
2023-07-02T11:51:49.861Z,45.39
2023-07-02T11:54:19.051Z,47.84
2023-07-02T11:56:46.495Z,49.90
2023-07-02T11:59:13.964Z,51.66
2023-07-02T12:01:41.522Z,53.42
2023-07-02T12:04:13.110Z,55.07
2023-07-02T12:06:40.665Z,56.21
2023-07-02T12:09:08.040Z,56.71
2023-07-02T12:11:35.425Z,57.49
2023-07-02T12:14:02.863Z,58.47
2023-07-02T12:16:30.265Z,58.23
2023-07-02T12:18:57.726Z,58.71
2023-07-02T12:21:25.324Z,59.69
2023-07-02T12:23:52.912Z,60.34
2023-07-02T12:26:20.427Z,61.09
2023-07-02T12:28:47.809Z,61.86
2023-07-02T12:31:15.264Z,61.91
2023-07-02T12:33:42.943Z,61.58
2023-07-02T12:36:10.761Z,61.52
2023-07-02T12:38:38.158Z,61.64
2023-07-02T12:41:05.798Z,61.30
2023-07-02T12:43:33.217Z,61.36
2023-07-02T12:46:00.801Z,61.99
2023-07-02T12:48:28.238Z,62.40
2023-07-02T12:50:59.736Z,62.91
2023-07-02T12:53:27.635Z,63.01
2023-07-02T12:55:56.085Z,63.29
2023-07-02T12:58:26.104Z,63.02
2023-07-02T13:00:53.572Z,62.62
2023-07-02T13:03:21.946Z,62.22
2023-07-02T13:05:49.971Z,61.96
2023-07-02T13:08:17.705Z,62.38
2023-07-02T13:10:45.195Z,62.88
2023-07-02T13:13:22.747Z,63.14
2023-07-02T13:16:27.078Z,62.79
2023-07-02T13:18:56.861Z,62.89
2023-07-02T13:21:24.292Z,62.73
2023-07-02T13:23:51.702Z,62.69
2023-07-02T13:26:19.319Z,62.81
2023-07-02T13:28:48.867Z,63.18
2023-07-02T13:31:17.133Z,63.07
2023-07-02T13:33:44.605Z,62.73
2023-07-02T13:36:11.999Z,63.52
2023-07-02T13:38:39.487Z,63.60
2023-07-02T13:41:06.960Z,63.97
2023-07-02T13:43:34.395Z,64.79
2023-07-02T13:46:01.936Z,65.54
2023-07-02T13:48:29.470Z,65.83
2023-07-02T13:50:56.840Z,65.59
2023-07-02T13:53:24.285Z,65.24
2023-07-02T13:55:52.234Z,65.34
2023-07-02T13:58:29.423Z,65.64
2023-07-02T14:00:58.199Z,66.28
2023-07-02T14:03:25.695Z,66.53
2023-07-02T14:05:53.388Z,66.57
2023-07-02T14:08:21.117Z,67.11
2023-07-02T14:10:48.854Z,67.16
2023-07-02T14:13:16.585Z,67.66
2023-07-02T14:15:43.999Z,68.14
2023-07-02T14:18:12.856Z,67.67
2023-07-02T14:20:40.405Z,66.98
2023-07-02T14:23:08.265Z,64.64
2023-07-02T14:25:41.958Z,63.50
2023-07-02T14:28:10.209Z,63.56
2023-07-02T14:30:37.894Z,63.80
2023-07-02T14:33:05.502Z,64.21
2023-07-02T14:35:33.039Z,64.54
2023-07-02T14:38:00.413Z,64.62
2023-07-02T14:40:28.878Z,64.42
2023-07-02T14:42:59.704Z,64.48
2023-07-02T14:45:27.197Z,63.87
2023-07-02T14:47:54.781Z,63.58
2023-07-02T14:50:22.279Z,63.67
2023-07-02T14:52:49.686Z,63.73
2023-07-02T14:55:17.128Z,64.22
2023-07-02T14:57:44.874Z,64.33
2023-07-02T15:00:12.809Z,64.43
2023-07-02T15:02:40.269Z,64.65
2023-07-02T15:05:08.162Z,64.39
2023-07-02T15:07:36.236Z,64.81
2023-07-02T15:10:03.640Z,65.04
2023-07-02T15:12:31.135Z,65.14
2023-07-02T15:14:58.618Z,64.78
2023-07-02T15:17:32.051Z,64.12
2023-07-02T15:20:00.751Z,64.38
2023-07-02T15:22:28.406Z,64.34
2023-07-02T15:24:56.039Z,64.00
2023-07-02T15:27:23.436Z,64.07
2023-07-02T15:29:50.875Z,63.49
2023-07-02T15:32:18.315Z,63.40
2023-07-02T15:34:45.795Z,63.63
2023-07-02T15:37:18.607Z,63.85
2023-07-02T15:39:46.020Z,64.10
2023-07-02T15:42:13.446Z,64.40
2023-07-02T15:44:40.906Z,64.93
2023-07-02T15:47:13.218Z,65.11
2023-07-02T15:49:43.126Z,65.37
2023-07-02T15:52:10.583Z,65.68
2023-07-02T15:54:37.936Z,66.16
2023-07-02T15:57:05.511Z,66.44
2023-07-02T15:59:32.982Z,66.85
2023-07-02T16:02:00.395Z,67.23
2023-07-02T16:04:28.082Z,67.85
2023-07-02T16:06:55.857Z,67.99
2023-07-02T16:09:23.421Z,67.90
2023-07-02T16:11:53.729Z,68.20
2023-07-02T16:14:23.402Z,68.64
2023-07-02T16:16:55.712Z,68.35
2023-07-02T16:19:25.837Z,68.14
2023-07-02T16:21:56.652Z,68.11
2023-07-02T16:26:24.110Z,68.55
2023-07-02T16:28:51.588Z,68.82
2023-07-02T16:31:21.111Z,69.00
2023-07-02T16:33:49.096Z,69.31
2023-07-02T16:36:16.940Z,69.48
2023-07-02T16:38:49.719Z,69.47
2023-07-02T16:41:17.984Z,69.51
2023-07-02T16:43:50.845Z,69.77
2023-07-02T16:46:18.216Z,69.75
2023-07-02T16:48:48.463Z,69.78
2023-07-02T16:51:16.000Z,69.96
2023-07-02T16:53:43.452Z,70.01
2023-07-02T16:56:14.007Z,69.80
2023-07-02T16:58:41.499Z,69.85
2023-07-02T17:01:11.127Z,70.03
2023-07-02T17:03:38.808Z,70.34
2023-07-02T17:06:07.084Z,70.58
2023-07-02T17:08:38.342Z,70.70
2023-07-02T17:11:06.671Z,71.18
2023-07-02T17:13:36.524Z,71.62
2023-07-02T17:16:04.638Z,71.80
2023-07-02T17:18:33.298Z,71.82
2023-07-02T17:21:00.756Z,71.82
2023-07-02T17:23:30.570Z,72.31
2023-07-02T17:26:07.918Z,72.71
2023-07-02T17:28:35.535Z,72.56
2023-07-02T17:31:03.167Z,72.50
2023-07-02T17:33:30.833Z,72.72
2023-07-02T17:35:58.295Z,72.84
2023-07-02T17:38:25.707Z,72.94
2023-07-02T17:40:53.363Z,73.07
2023-07-02T17:43:20.808Z,73.01
2023-07-02T17:45:57.600Z,73.36
2023-07-02T17:48:28.707Z,73.54
2023-07-02T17:50:57.129Z,73.42
2023-07-02T17:53:25.518Z,73.32
2023-07-02T17:55:53.059Z,73.35
2023-07-02T17:58:20.448Z,73.47
2023-07-02T18:00:51.622Z,73.62
2023-07-02T18:03:19.631Z,73.89
2023-07-02T18:05:47.976Z,73.98
2023-07-02T18:08:15.797Z,74.01
2023-07-02T18:10:46.633Z,73.91
2023-07-02T18:13:14.067Z,74.01
2023-07-02T18:15:41.827Z,73.90
2023-07-02T18:18:10.685Z,73.57
2023-07-02T18:20:38.127Z,73.41
2023-07-02T18:23:05.546Z,73.12
2023-07-02T18:32:55.201Z,72.33
2023-07-02T18:35:22.821Z,72.45
2023-07-02T18:37:50.308Z,72.75
2023-07-02T18:40:23.148Z,72.86
2023-07-02T18:42:50.481Z,73.10
2023-07-02T18:45:18.963Z,73.32
2023-07-02T18:47:46.507Z,73.64
2023-07-02T18:50:16.899Z,73.87
2023-07-02T18:52:44.934Z,74.02
2023-07-02T18:55:12.427Z,74.12
2023-07-02T18:57:40.145Z,74.26
2023-07-02T19:00:09.856Z,74.17
2023-07-02T19:02:38.305Z,74.12
2023-07-02T19:05:07.167Z,74.12
2023-07-02T19:07:34.786Z,74.01
2023-07-02T19:10:04.759Z,74.14
2023-07-02T19:12:32.864Z,74.39
2023-07-02T19:15:00.547Z,74.83
2023-07-02T19:17:32.569Z,74.89
2023-07-02T19:20:00.052Z,75.03
2023-07-02T19:22:27.510Z,75.26
2023-07-02T19:24:54.925Z,75.32
2023-07-02T19:27:22.359Z,75.25
2023-07-02T19:29:50.841Z,75.11
2023-07-02T19:32:18.388Z,74.86
2023-07-02T19:34:48.759Z,74.86
2023-07-02T19:37:16.384Z,74.86
2023-07-02T19:39:43.779Z,74.82
2023-07-02T19:42:16.176Z,74.69
2023-07-02T19:44:43.745Z,74.68
2023-07-02T19:47:11.278Z,74.59
2023-07-02T19:49:45.473Z,74.67
2023-07-02T19:52:14.947Z,74.65
2023-07-02T19:54:46.011Z,74.78
2023-07-02T19:57:15.961Z,74.82
2023-07-02T19:59:47.858Z,74.85
2023-07-02T20:02:19.325Z,74.76
2023-07-02T20:04:48.891Z,74.62
2023-07-02T20:07:24.020Z,74.65
2023-07-02T20:09:51.447Z,74.55
2023-07-02T20:12:19.099Z,74.65
2023-07-02T20:14:50.091Z,74.79
2023-07-02T20:17:20.137Z,74.52
2023-07-02T20:19:52.709Z,74.39
2023-07-02T20:22:20.524Z,74.37
2023-07-02T20:24:48.038Z,74.31
2023-07-02T20:27:19.557Z,74.34
2023-07-02T20:29:48.582Z,74.43
2023-07-02T20:32:16.933Z,74.35
2023-07-02T20:34:55.153Z,74.13
2023-07-02T20:37:27.705Z,74.28
2023-07-02T20:39:55.104Z,74.30
2023-07-02T20:42:23.242Z,74.41
2023-07-02T20:44:51.350Z,74.33
2023-07-02T20:47:19.379Z,74.33
2023-07-02T20:49:50.991Z,74.30
2023-07-02T20:52:19.874Z,74.26
2023-07-02T20:54:47.382Z,74.13
2023-07-02T20:57:15.791Z,74.21
2023-07-02T20:59:44.126Z,74.12
2023-07-02T21:02:19.568Z,73.92
2023-07-02T21:04:48.157Z,73.95
2023-07-02T21:07:15.633Z,74.08
2023-07-02T21:09:45.383Z,73.93
2023-07-02T21:12:12.818Z,73.95
2023-07-02T21:14:40.219Z,74.01
2023-07-02T21:17:11.111Z,73.93
2023-07-02T21:19:38.639Z,74.00
2023-07-02T21:22:06.260Z,73.93
2023-07-02T21:24:36.026Z,73.80
2023-07-02T21:27:06.421Z,73.99
2023-07-02T21:29:33.928Z,74.15
2023-07-02T21:32:01.421Z,74.29
2023-07-02T21:34:28.971Z,74.10
2023-07-02T21:36:59.787Z,73.93
2023-07-02T21:39:27.213Z,73.89
2023-07-02T21:41:54.633Z,73.99
2023-07-02T21:44:22.031Z,74.25
2023-07-02T21:46:49.516Z,74.16
2023-07-02T21:49:17.020Z,74.16
2023-07-02T21:51:44.444Z,74.12
2023-07-02T21:54:11.840Z,74.07
2023-07-02T21:56:39.223Z,74.07
2023-07-02T21:59:16.868Z,74.07
2023-07-02T22:01:50.998Z,73.99
2023-07-02T22:04:18.882Z,74.13
2023-07-02T22:06:46.305Z,74.28
2023-07-02T22:09:13.804Z,74.35
2023-07-02T22:11:41.247Z,74.31
2023-07-02T22:14:08.652Z,74.03
2023-07-02T22:16:36.126Z,73.92
2023-07-02T22:19:05.689Z,73.87
2023-07-02T22:21:36.369Z,73.87
2023-07-02T22:24:04.037Z,73.99
2023-07-02T22:26:31.424Z,73.87
2023-07-02T22:29:01.796Z,73.88
2023-07-02T22:33:43.069Z,73.83
2023-07-02T22:36:10.454Z,73.65
2023-07-02T22:38:37.915Z,73.64
2023-07-02T22:41:05.317Z,73.75
2023-07-02T22:43:32.672Z,73.82
2023-07-02T22:46:00.090Z,73.69
2023-07-02T22:48:32.373Z,73.63
2023-07-02T22:50:59.939Z,73.57
2023-07-02T22:53:27.486Z,73.66
2023-07-02T22:55:54.884Z,73.76
2023-07-02T22:58:27.278Z,73.67
2023-07-02T23:00:59.534Z,73.69
2023-07-02T23:03:32.017Z,73.52
2023-07-02T23:05:59.624Z,73.51
2023-07-02T23:08:28.110Z,73.48
2023-07-02T23:10:55.515Z,73.61
